createdAt,value
2022-09-27T00:01:13.603Z,84.97
2022-09-27T00:03:41.539Z,84.60
2022-09-27T00:06:28.669Z,83.82
2022-09-27T00:08:57.813Z,84.80
2022-09-27T00:11:35.529Z,84.42
2022-09-27T00:14:04.350Z,84.97
2022-09-27T00:16:34.924Z,84.96
2022-09-27T00:19:06.073Z,84.64
2022-09-27T00:21:34.131Z,84.72
2022-09-27T00:24:02.879Z,84.59
2022-09-27T00:26:31.566Z,84.64
2022-09-27T00:28:59.994Z,85.83
2022-09-27T00:31:30.449Z,85.50
2022-09-27T00:34:00.948Z,85.29
2022-09-27T00:36:31.146Z,84.97
2022-09-27T00:39:00.267Z,85.68
2022-09-27T00:41:32.312Z,85.22
2022-09-27T00:44:06.306Z,85.74
2022-09-27T00:46:43.174Z,85.02
2022-09-27T00:49:27.505Z,84.91
2022-09-27T00:52:01.641Z,84.37
2022-09-27T00:54:34.862Z,83.98
2022-09-27T00:57:05.384Z,84.23
2022-09-27T00:59:46.413Z,85.18
2022-09-27T01:02:14.635Z,86.23
2022-09-27T01:04:44.988Z,86.26
2022-09-27T01:07:12.503Z,85.81
2022-09-27T01:09:40.706Z,85.47
2022-09-27T01:12:34.740Z,85.75
2022-09-27T01:15:43.941Z,86.42
2022-09-27T01:18:35.736Z,86.45
2022-09-27T01:21:23.572Z,85.36
2022-09-27T01:24:19.845Z,85.17
2022-09-27T01:26:56.768Z,85.30
2022-09-27T01:29:46.401Z,85.27
2022-09-27T01:32:42.580Z,84.56
2022-09-27T01:35:20.163Z,83.93
2022-09-27T01:38:16.705Z,84.27
2022-09-27T01:41:00.480Z,83.76
2022-09-27T01:43:47.973Z,83.52
2022-09-27T01:46:23.875Z,83.02
2022-09-27T01:49:20.863Z,82.97
2022-09-27T01:51:57.470Z,83.47
2022-09-27T01:54:33.034Z,83.36
2022-09-27T01:57:40.413Z,83.94
2022-09-27T02:00:14.763Z,84.32
2022-09-27T02:03:00.833Z,84.68
2022-09-27T02:05:37.824Z,84.49
2022-09-27T02:08:51.191Z,84.74
2022-09-27T02:11:29.213Z,84.45
2022-09-27T02:14:17.652Z,84.95
2022-09-27T02:17:13.638Z,85.01
2022-09-27T02:20:05.252Z,85.69
2022-09-27T02:22:52.062Z,86.54
2022-09-27T02:25:30.639Z,86.50
2022-09-27T02:28:20.422Z,86.09
2022-09-27T02:30:48.152Z,86.45
2022-09-27T02:33:41.690Z,86.05
2022-09-27T02:36:09.731Z,87.13
2022-09-27T02:38:38.003Z,86.89
2022-09-27T02:41:13.215Z,86.70
2022-09-27T02:43:41.515Z,86.20
2022-09-27T02:46:26.520Z,86.19
2022-09-27T02:49:10.749Z,86.50
2022-09-27T02:52:04.297Z,86.46
2022-09-27T02:54:57.473Z,86.28
2022-09-27T02:58:01.875Z,85.74
2022-09-27T03:01:23.238Z,85.86
2022-09-27T03:04:23.490Z,85.76
2022-09-27T03:06:53.455Z,86.39
2022-09-27T03:09:22.299Z,85.98
2022-09-27T03:11:49.977Z,86.03
2022-09-27T03:14:18.125Z,86.18
2022-09-27T03:16:59.559Z,85.38
2022-09-27T03:19:46.099Z,85.90
2022-09-27T03:22:32.565Z,86.15
2022-09-27T03:25:00.694Z,85.99
2022-09-27T03:27:28.868Z,86.18
2022-09-27T03:29:56.821Z,86.17
2022-09-27T03:32:25.093Z,85.68
2022-09-27T03:35:21.961Z,86.21
2022-09-27T03:37:49.590Z,86.57
2022-09-27T03:40:17.453Z,86.27
2022-09-27T03:42:49.689Z,86.48
2022-09-27T03:45:18.321Z,86.44
2022-09-27T03:47:48.171Z,86.12
2022-09-27T03:50:16.008Z,86.31
2022-09-27T03:52:44.968Z,86.18
2022-09-27T03:55:13.879Z,85.94
2022-09-27T03:57:46.633Z,85.14
2022-09-27T04:00:16.464Z,85.52
2022-09-27T04:02:44.124Z,85.65
2022-09-27T04:05:25.690Z,85.08
2022-09-27T04:08:07.908Z,84.96
2022-09-27T04:10:36.860Z,85.02
2022-09-27T04:13:06.116Z,84.81
2022-09-27T04:15:42.012Z,85.25
2022-09-27T04:18:30.305Z,85.04
2022-09-27T04:21:33.686Z,85.24
2022-09-27T04:24:01.549Z,85.45
2022-09-27T04:26:32.386Z,85.38
2022-09-27T04:29:06.201Z,85.07
2022-09-27T04:31:38.741Z,84.58
2022-09-27T04:34:12.461Z,84.32
2022-09-27T04:36:40.032Z,84.98
2022-09-27T04:39:10.972Z,84.50
2022-09-27T04:41:41.822Z,84.54
2022-09-27T04:44:09.378Z,84.58
2022-09-27T04:46:37.003Z,84.87
2022-09-27T04:49:05.064Z,84.80
2022-09-27T04:51:35.734Z,84.42
2022-09-27T04:54:04.931Z,84.52
2022-09-27T04:56:42.535Z,84.52
2022-09-27T04:59:10.980Z,84.63
2022-09-27T05:01:41.122Z,84.72
2022-09-27T05:04:38.041Z,84.72
2022-09-27T05:07:07.230Z,85.02
2022-09-27T05:09:44.957Z,85.04
2022-09-27T05:12:13.983Z,84.35
2022-09-27T05:14:47.417Z,84.64
2022-09-27T05:17:34.141Z,85.14
2022-09-27T05:20:21.173Z,85.30
2022-09-27T05:23:00.319Z,84.97
2022-09-27T05:25:28.080Z,84.44
2022-09-27T05:27:57.625Z,83.83
2022-09-27T05:30:32.472Z,83.50
2022-09-27T05:33:14.131Z,83.44
2022-09-27T05:35:51.594Z,84.33
2022-09-27T05:38:19.726Z,84.85
2022-09-27T05:40:51.570Z,84.45
2022-09-27T05:43:20.088Z,84.07
2022-09-27T05:45:48.853Z,84.33
2022-09-27T05:48:19.765Z,84.26
2022-09-27T05:50:55.062Z,84.00
2022-09-27T05:53:23.707Z,84.19
2022-09-27T05:55:51.632Z,84.61
2022-09-27T05:58:23.180Z,84.79
2022-09-27T06:01:00.491Z,84.95
2022-09-27T06:03:57.354Z,84.73
2022-09-27T06:06:44.232Z,85.39
2022-09-27T06:09:14.041Z,85.60
2022-09-27T06:11:45.482Z,84.95
2022-09-27T06:14:16.132Z,85.72
2022-09-27T06:17:09.727Z,85.40
2022-09-27T06:19:41.403Z,85.31
2022-09-27T06:22:09.206Z,84.69
2022-09-27T06:24:52.008Z,84.63
2022-09-27T06:27:25.369Z,84.31
2022-09-27T06:30:08.312Z,83.43
2022-09-27T06:33:00.463Z,84.10
2022-09-27T06:35:36.529Z,84.55
2022-09-27T06:38:08.873Z,83.51
2022-09-27T06:40:39.363Z,82.80
2022-09-27T06:43:31.383Z,80.78
2022-09-27T06:46:17.698Z,79.54
2022-09-27T06:48:55.539Z,80.29
2022-09-27T06:51:23.313Z,81.94
2022-09-27T06:53:51.070Z,82.95
2022-09-27T06:56:19.186Z,83.16
2022-09-27T06:59:12.225Z,83.44
2022-09-27T07:01:42.903Z,83.86
2022-09-27T07:04:46.279Z,83.86
2022-09-27T07:07:29.961Z,82.76
2022-09-27T07:09:57.805Z,82.81
2022-09-27T07:12:28.456Z,83.05
2022-09-27T07:14:57.019Z,82.17
2022-09-27T07:17:24.696Z,81.44
2022-09-27T07:19:53.154Z,81.01
2022-09-27T07:22:21.478Z,80.65
2022-09-27T07:24:55.269Z,80.59
2022-09-27T07:27:28.873Z,79.83
2022-09-27T07:29:56.622Z,79.85
2022-09-27T07:32:26.082Z,79.16
2022-09-27T07:34:54.542Z,78.79
2022-09-27T07:37:23.395Z,77.87
2022-09-27T07:39:51.166Z,78.72
2022-09-27T07:42:18.915Z,77.90
2022-09-27T07:44:49.840Z,72.35
2022-09-27T07:47:49.527Z,71.10
2022-09-27T07:50:22.773Z,70.76
2022-09-27T07:52:54.343Z,71.39
2022-09-27T07:55:44.185Z,72.93
2022-09-27T07:58:20.865Z,74.10
2022-09-27T08:00:49.133Z,74.70
2022-09-27T08:03:18.510Z,75.81
2022-09-27T08:05:48.863Z,72.37
2022-09-27T08:08:17.614Z,72.62
2022-09-27T08:10:47.872Z,73.61
2022-09-27T08:13:20.488Z,74.80
2022-09-27T08:15:52.659Z,75.84
2022-09-27T08:18:22.114Z,76.34
2022-09-27T08:20:52.605Z,72.75
2022-09-27T08:23:30.161Z,73.75
2022-09-27T08:26:20.827Z,75.90
2022-09-27T08:29:04.804Z,77.09
2022-09-27T08:31:40.256Z,77.53
2022-09-27T08:34:08.757Z,76.29
2022-09-27T08:36:37.562Z,77.16
2022-09-27T08:39:05.986Z,77.47
2022-09-27T08:41:55.835Z,77.98
2022-09-27T08:45:03.794Z,75.65
2022-09-27T08:47:33.054Z,74.68
2022-09-27T08:50:10.456Z,75.16
2022-09-27T08:52:46.892Z,75.05
2022-09-27T08:55:37.318Z,75.21
2022-09-27T08:58:37.153Z,74.16
2022-09-27T09:01:16.293Z,75.32
2022-09-27T09:04:00.301Z,75.67
2022-09-27T09:07:09.800Z,72.99
2022-09-27T09:09:39.078Z,71.13
2022-09-27T09:12:43.112Z,72.28
2022-09-27T09:15:54.461Z,74.11
2022-09-27T09:18:52.166Z,72.79
2022-09-27T09:22:15.356Z,74.38
2022-09-27T09:25:01.526Z,75.05
2022-09-27T09:27:39.871Z,73.43
2022-09-27T09:30:26.205Z,74.41
2022-09-27T09:33:16.805Z,75.20
2022-09-27T09:35:59.211Z,74.03
2022-09-27T09:38:45.309Z,73.89
2022-09-27T09:41:31.069Z,74.17
2022-09-27T09:44:18.780Z,75.56
2022-09-27T09:46:52.583Z,77.69
2022-09-27T09:49:44.723Z,77.85
2022-09-27T09:52:19.144Z,77.18
2022-09-27T09:54:57.589Z,76.85
2022-09-27T09:57:35.873Z,77.89
2022-09-27T10:00:24.092Z,77.91
2022-09-27T10:02:58.860Z,76.20
2022-09-27T10:05:29.145Z,75.64
2022-09-27T10:08:07.853Z,76.11
2022-09-27T10:10:37.212Z,75.05
2022-09-27T10:13:28.585Z,74.53
2022-09-27T10:16:09.031Z,74.41
2022-09-27T10:18:44.071Z,74.70
2022-09-27T10:21:18.403Z,74.62
2022-09-27T10:24:18.540Z,76.17
2022-09-27T10:27:07.816Z,75.88
2022-09-27T10:29:39.274Z,75.55
2022-09-27T10:32:36.792Z,76.52
2022-09-27T10:35:30.543Z,75.65
2022-09-27T10:38:17.371Z,73.86
2022-09-27T10:40:46.489Z,74.53
2022-09-27T10:43:35.723Z,73.88
2022-09-27T10:46:32.823Z,74.36
2022-09-27T10:49:31.325Z,73.44
2022-09-27T10:52:06.436Z,72.95
2022-09-27T10:54:37.393Z,73.22
2022-09-27T10:57:19.906Z,75.23
2022-09-27T10:59:55.992Z,77.37
2022-09-27T11:02:39.834Z,79.31
2022-09-27T11:05:34.167Z,80.85
2022-09-27T11:08:26.096Z,80.53
2022-09-27T11:11:26.790Z,80.51
2022-09-27T11:14:19.918Z,80.12
2022-09-27T11:17:14.350Z,79.42
2022-09-27T11:20:07.665Z,78.13
2022-09-27T11:23:04.400Z,75.96
2022-09-27T11:25:44.175Z,76.93
2022-09-27T11:28:34.843Z,76.41
2022-09-27T11:31:18.830Z,75.12
2022-09-27T11:34:05.306Z,75.84
2022-09-27T11:36:56.195Z,74.30
2022-09-27T11:39:56.574Z,71.95
2022-09-27T11:42:43.931Z,74.69
2022-09-27T11:45:56.365Z,76.59
2022-09-27T11:48:49.414Z,77.27
2022-09-27T11:51:29.790Z,78.13
2022-09-27T11:54:31.455Z,78.75
2022-09-27T11:57:19.102Z,79.35
2022-09-27T12:00:03.248Z,78.42
2022-09-27T12:03:13.134Z,77.68
2022-09-27T12:06:12.981Z,77.11
2022-09-27T12:08:55.098Z,77.83
2022-09-27T12:11:46.742Z,77.96
2022-09-27T12:14:38.800Z,76.11
2022-09-27T12:17:16.853Z,76.49
2022-09-27T12:19:54.906Z,75.77
2022-09-27T12:23:00.708Z,75.60
2022-09-27T12:25:48.444Z,74.97
2022-09-27T12:28:33.340Z,73.29
2022-09-27T12:34:19.518Z,73.00
2022-09-27T12:37:18.563Z,72.77
2022-09-27T12:40:01.405Z,72.33
2022-09-27T12:42:46.416Z,71.54
2022-09-27T12:45:49.526Z,72.08
2022-09-27T12:48:55.123Z,71.69
2022-09-27T12:51:25.541Z,72.33
2022-09-27T12:54:13.452Z,70.66
2022-09-27T12:57:00.684Z,71.15
2022-09-27T12:59:50.488Z,72.13
2022-09-27T13:03:15.137Z,71.92
2022-09-27T13:05:58.711Z,71.30
2022-09-27T13:08:43.871Z,69.67
2022-09-27T13:11:26.373Z,70.92
2022-09-27T13:14:03.711Z,70.52
2022-09-27T13:16:41.824Z,73.50
2022-09-27T13:19:36.635Z,72.74
2022-09-27T13:22:30.481Z,72.11
2022-09-27T13:25:55.874Z,71.44
2022-09-27T13:28:48.394Z,67.55
2022-09-27T13:31:54.751Z,69.83
2022-09-27T13:34:53.406Z,71.25
2022-09-27T13:38:01.306Z,71.02
2022-09-27T13:40:38.743Z,69.49
2022-09-27T13:43:17.700Z,71.70
2022-09-27T13:46:17.648Z,73.06
2022-09-27T13:49:02.264Z,72.82
2022-09-27T13:51:55.567Z,72.61
2022-09-27T13:54:35.552Z,73.64
2022-09-27T13:57:07.657Z,74.76
2022-09-27T13:59:44.178Z,76.50
2022-09-27T14:02:32.582Z,76.23
2022-09-27T14:05:03.059Z,76.93
2022-09-27T14:07:42.848Z,79.96
2022-09-27T14:10:21.510Z,79.43
2022-09-27T14:12:52.945Z,78.89
2022-09-27T14:15:26.031Z,79.89
2022-09-27T14:17:56.927Z,80.13
2022-09-27T14:20:36.114Z,78.26
2022-09-27T14:23:06.129Z,78.16
2022-09-27T14:25:45.012Z,77.08
2022-09-27T14:28:42.568Z,75.26
2022-09-27T14:31:23.876Z,76.55
2022-09-27T14:34:12.002Z,75.33
2022-09-27T14:37:03.640Z,76.83
2022-09-27T14:39:38.896Z,73.90
2022-09-27T14:42:25.099Z,73.90
2022-09-27T14:44:55.660Z,72.54
2022-09-27T14:47:27.719Z,74.11
2022-09-27T14:50:16.511Z,71.92
2022-09-27T14:52:44.822Z,73.35
2022-09-27T14:55:19.760Z,74.87
2022-09-27T14:58:05.480Z,73.73
2022-09-27T15:00:37.551Z,73.03
2022-09-27T15:03:09.991Z,73.52
2022-09-27T15:05:43.450Z,73.08
2022-09-27T15:08:15.388Z,75.08
2022-09-27T15:10:44.017Z,75.53
2022-09-27T15:13:18.765Z,74.51
2022-09-27T15:15:48.876Z,75.37
2022-09-27T15:18:43.522Z,74.48
2022-09-27T15:21:14.615Z,74.51
2022-09-27T15:23:45.515Z,75.00
2022-09-27T15:26:22.994Z,75.38
2022-09-27T15:28:53.358Z,74.29
2022-09-27T15:31:36.509Z,74.37
2022-09-27T15:34:08.354Z,74.53
2022-09-27T15:36:54.379Z,74.57
2022-09-27T15:39:29.421Z,75.16
2022-09-27T15:42:07.518Z,74.98
2022-09-27T15:44:53.253Z,74.61
2022-09-27T15:47:34.581Z,75.19
2022-09-27T15:50:17.878Z,75.31
2022-09-27T15:52:57.155Z,75.49
2022-09-27T15:55:30.030Z,75.44
2022-09-27T15:58:05.744Z,74.94
2022-09-27T16:00:35.117Z,75.27
2022-09-27T16:03:03.100Z,76.39
2022-09-27T16:05:33.296Z,75.44
2022-09-27T16:08:01.252Z,74.73
2022-09-27T16:10:40.289Z,75.25
2022-09-27T16:13:07.875Z,76.13
2022-09-27T16:15:36.090Z,74.43
2022-09-27T16:18:04.015Z,75.22
2022-09-27T16:20:32.352Z,74.97
2022-09-27T16:23:00.374Z,74.76
2022-09-27T16:25:28.882Z,74.43
2022-09-27T16:28:01.285Z,73.01
2022-09-27T16:30:33.274Z,73.93
2022-09-27T16:33:01.007Z,73.99
2022-09-27T16:35:28.827Z,73.71
2022-09-27T16:37:56.403Z,73.06
2022-09-27T16:40:25.931Z,71.70
2022-09-27T16:42:53.744Z,72.46
2022-09-27T16:45:21.257Z,73.09
2022-09-27T16:47:49.196Z,72.90
2022-09-27T16:50:35.770Z,72.72
2022-09-27T16:53:05.333Z,72.64
2022-09-27T16:55:32.932Z,73.37
2022-09-27T16:58:01.285Z,72.13
2022-09-27T17:00:30.136Z,71.03
2022-09-27T17:02:57.771Z,72.10
2022-09-27T17:05:28.323Z,71.52
2022-09-27T17:07:56.477Z,71.68
2022-09-27T17:10:26.518Z,71.46
2022-09-27T17:12:55.367Z,72.08
2022-09-27T17:15:23.074Z,72.51
2022-09-27T17:17:51.216Z,72.09
2022-09-27T17:20:19.033Z,72.71
2022-09-27T17:22:46.597Z,73.65
2022-09-27T17:25:14.313Z,73.69
2022-09-27T17:27:42.024Z,74.81
2022-09-27T17:30:10.088Z,76.19
2022-09-27T17:32:39.007Z,76.30
2022-09-27T17:35:08.136Z,77.53
2022-09-27T17:37:35.669Z,77.44
2022-09-27T17:40:04.565Z,77.21
2022-09-27T17:42:32.233Z,76.42
2022-09-27T17:45:00.019Z,75.08
2022-09-27T17:47:46.898Z,75.34
2022-09-27T17:50:28.807Z,75.07
2022-09-27T17:52:58.991Z,74.90
2022-09-27T17:55:27.572Z,74.12
2022-09-27T17:57:55.299Z,74.06
2022-09-27T18:00:23.351Z,74.21
2022-09-27T18:02:51.254Z,73.94
2022-09-27T18:05:21.217Z,73.91
2022-09-27T18:07:49.125Z,73.99
2022-09-27T18:14:37.372Z,74.85
2022-09-27T18:17:09.119Z,74.59
2022-09-27T18:19:37.464Z,74.78
2022-09-27T18:22:07.372Z,74.77
2022-09-27T18:24:35.056Z,74.81
2022-09-27T18:27:04.593Z,74.77
2022-09-27T18:29:32.495Z,75.03
2022-09-27T18:32:02.217Z,74.81
2022-09-27T18:34:30.620Z,74.52
2022-09-27T18:36:58.474Z,74.71
2022-09-27T18:39:26.292Z,74.46
2022-09-27T18:41:55.734Z,74.61
2022-09-27T18:44:23.441Z,74.51
2022-09-27T18:46:51.884Z,74.15
2022-09-27T18:49:24.847Z,74.31
2022-09-27T18:51:53.968Z,74.47
2022-09-27T18:54:23.414Z,74.83
2022-09-27T18:56:52.486Z,74.17
2022-09-27T18:59:21.187Z,74.35
2022-09-27T19:01:48.939Z,74.25
2022-09-27T19:04:26.846Z,74.35
2022-09-27T19:06:56.863Z,74.33
2022-09-27T19:09:26.750Z,74.05
2022-09-27T19:11:54.440Z,74.01
2022-09-27T19:14:23.514Z,74.30
2022-09-27T19:16:51.257Z,73.64
2022-09-27T19:19:20.595Z,73.62
2022-09-27T19:21:49.102Z,73.73
2022-09-27T19:24:18.967Z,73.82
2022-09-27T19:26:47.119Z,74.17
2022-09-27T19:29:14.893Z,74.37
2022-09-27T19:31:42.872Z,74.64
2022-09-27T19:34:11.193Z,74.99
2022-09-27T19:36:38.764Z,75.84
2022-09-27T19:39:06.549Z,76.17
2022-09-27T19:41:34.099Z,76.92
2022-09-27T19:44:02.158Z,76.95
2022-09-27T19:46:29.843Z,78.47
2022-09-27T19:48:57.598Z,78.82
2022-09-27T19:51:27.524Z,80.52
2022-09-27T19:53:55.853Z,80.61
2022-09-27T19:56:24.789Z,81.17
2022-09-27T19:58:52.561Z,82.43
2022-09-27T20:01:22.921Z,83.61
2022-09-27T20:03:53.398Z,83.07
2022-09-27T20:06:22.274Z,83.44
2022-09-27T20:08:50.016Z,84.55
2022-09-27T20:11:20.927Z,84.62
2022-09-27T20:13:49.863Z,83.82
2022-09-27T20:16:26.232Z,83.02
2022-09-27T20:18:56.937Z,82.97
2022-09-27T20:21:28.556Z,83.52
2022-09-27T20:23:58.425Z,83.31
2022-09-27T20:26:28.933Z,83.24
2022-09-27T20:28:59.365Z,83.42
2022-09-27T20:31:30.045Z,82.95
2022-09-27T20:33:57.696Z,82.19
2022-09-27T20:36:26.726Z,81.54
2022-09-27T20:39:01.939Z,80.97
2022-09-27T20:41:37.474Z,80.96
2022-09-27T20:44:10.990Z,81.18
2022-09-27T20:46:40.153Z,80.96
2022-09-27T20:49:11.266Z,81.69
2022-09-27T20:51:41.313Z,81.56
2022-09-27T20:54:11.861Z,81.67
2022-09-27T20:56:43.294Z,81.26
2022-09-27T20:59:16.970Z,80.20
2022-09-27T21:01:48.061Z,80.10
2022-09-27T21:04:17.701Z,80.39
2022-09-27T21:06:46.171Z,79.71
2022-09-27T21:09:19.130Z,80.27
2022-09-27T21:11:52.246Z,80.19
2022-09-27T21:14:20.085Z,79.75
2022-09-27T21:16:47.871Z,79.87
2022-09-27T21:19:15.726Z,80.15
2022-09-27T21:21:43.469Z,79.76
2022-09-27T21:24:11.514Z,79.59
2022-09-27T21:26:39.189Z,79.48
2022-09-27T21:29:09.928Z,79.24
2022-09-27T21:31:38.211Z,79.50
2022-09-27T21:34:07.030Z,79.72
2022-09-27T21:36:37.697Z,79.76
2022-09-27T21:39:08.726Z,80.15
2022-09-27T21:41:39.134Z,80.23
2022-09-27T21:44:08.274Z,80.09
2022-09-27T21:46:39.134Z,81.03
2022-09-27T21:49:07.128Z,81.41
2022-09-27T21:51:38.780Z,82.30
2022-09-27T21:54:10.713Z,83.20
2022-09-27T21:56:40.054Z,83.31
2022-09-27T21:59:12.136Z,83.50
2022-09-27T22:01:42.007Z,83.68
2022-09-27T22:04:09.760Z,83.49
2022-09-27T22:06:39.582Z,83.13
2022-09-27T22:09:11.751Z,82.80
2022-09-27T22:11:44.508Z,82.58
2022-09-27T22:14:17.004Z,82.14
2022-09-27T22:16:44.594Z,82.82
2022-09-27T22:19:15.073Z,82.87
2022-09-27T22:21:43.464Z,82.96
2022-09-27T22:24:17.475Z,82.64
2022-09-27T22:26:51.812Z,82.15
2022-09-27T22:29:19.740Z,82.10
2022-09-27T22:31:47.996Z,82.41
2022-09-27T22:34:29.028Z,82.40
2022-09-27T22:36:58.358Z,82.25
2022-09-27T22:39:26.324Z,82.95
2022-09-27T22:41:53.948Z,83.05
2022-09-27T22:44:22.852Z,83.14
2022-09-27T22:46:50.447Z,83.23
2022-09-27T22:49:18.251Z,83.69
2022-09-27T22:51:46.253Z,83.68
2022-09-27T22:54:13.802Z,83.53
2022-09-27T22:56:41.403Z,83.37
2022-09-27T22:59:08.946Z,83.83
2022-09-27T23:01:36.908Z,83.46
2022-09-27T23:04:05.010Z,83.16
2022-09-27T23:06:33.443Z,83.15
2022-09-27T23:09:01.991Z,83.34
2022-09-27T23:11:31.292Z,83.32
2022-09-27T23:13:58.893Z,83.40
2022-09-27T23:16:27.304Z,83.12
2022-09-27T23:18:56.802Z,83.40
2022-09-27T23:21:26.625Z,83.49
2022-09-27T23:23:59.657Z,83.60
2022-09-27T23:26:28.641Z,83.48
2022-09-27T23:28:58.633Z,83.51
2022-09-27T23:31:31.585Z,83.39
2022-09-27T23:34:03.811Z,83.91
2022-09-27T23:36:31.528Z,84.09
2022-09-27T23:39:01.634Z,83.48
2022-09-27T23:41:29.463Z,83.96
2022-09-27T23:43:57.374Z,83.78
2022-09-27T23:46:26.231Z,83.74
2022-09-27T23:48:53.878Z,83.71
2022-09-27T23:51:21.487Z,83.66
2022-09-27T23:53:49.458Z,83.43
2022-09-27T23:56:18.280Z,83.23
2022-09-27T23:58:47.325Z,83.00
